createdAt,value
2023-02-12T00:04:03.908Z,90.13
2023-02-12T00:07:53.017Z,90.15
2023-02-12T00:11:48.614Z,90.24
2023-02-12T00:31:25.447Z,90.41
2023-02-12T00:35:13.499Z,90.52
2023-02-12T00:39:00.987Z,90.59
2023-02-12T00:42:49.385Z,90.68
2023-02-12T00:46:37.472Z,90.67
2023-02-12T00:50:25.371Z,90.83
2023-02-12T00:54:02.742Z,90.87
2023-02-12T00:57:51.446Z,90.87
2023-02-12T01:01:39.916Z,90.90
2023-02-12T01:05:28.314Z,90.86
2023-02-12T01:09:16.784Z,90.88
2023-02-12T01:13:04.368Z,90.95
2023-02-12T01:17:03.070Z,90.95
2023-02-12T01:20:52.409Z,91.01
2023-02-12T01:25:29.506Z,90.97
2023-02-12T01:29:20.493Z,90.99
2023-02-12T01:33:08.025Z,91.00
2023-02-12T01:36:55.472Z,91.09
2023-02-12T01:52:35.118Z,91.01
2023-02-12T01:56:23.982Z,91.02
2023-02-12T02:00:09.531Z,91.00
2023-02-12T02:03:58.683Z,91.01
2023-02-12T02:07:53.701Z,91.02
2023-02-12T02:11:41.751Z,91.12
2023-02-12T02:15:31.116Z,91.12
2023-02-12T02:31:42.991Z,91.27
2023-02-12T02:35:46.146Z,91.07
2023-02-12T02:39:37.526Z,91.21
2023-02-12T02:51:25.714Z,91.18
2023-02-12T02:55:14.812Z,91.13
2023-02-12T02:59:06.743Z,91.19
2023-02-12T03:03:10.972Z,91.10
2023-02-12T03:15:14.765Z,90.54
2023-02-12T03:19:06.867Z,89.87
2023-02-12T03:23:08.008Z,89.50
2023-02-12T03:34:58.794Z,90.29
2023-02-12T03:38:51.068Z,90.40
2023-02-12T03:42:43.062Z,90.50
2023-02-12T03:54:37.438Z,90.57
2023-02-12T03:58:26.460Z,90.48
2023-02-12T04:02:15.829Z,89.74
2023-02-12T04:06:05.097Z,90.08
2023-02-12T04:09:54.066Z,90.27
2023-02-12T04:14:01.498Z,90.42
2023-02-12T04:18:00.923Z,90.33
2023-02-12T04:30:03.159Z,90.23
2023-02-12T04:33:52.504Z,90.26
2023-02-12T04:37:50.712Z,90.35
2023-02-12T05:00:56.943Z,90.34
2023-02-12T05:04:46.378Z,90.27
2023-02-12T05:08:35.279Z,90.03
2023-02-12T05:12:24.630Z,89.91
2023-02-12T05:16:13.477Z,89.94
2023-02-12T05:20:02.410Z,89.96
2023-02-12T05:23:51.889Z,90.11
2023-02-12T05:27:41.039Z,90.11
2023-02-12T05:31:30.950Z,90.07
2023-02-12T05:35:20.880Z,90.06
2023-02-12T05:39:09.953Z,89.93
2023-02-12T05:42:59.035Z,90.03
2023-02-12T05:46:48.453Z,90.07
2023-02-12T05:50:37.662Z,90.14
2023-02-12T05:54:26.702Z,90.23
2023-02-12T05:58:16.200Z,90.22
2023-02-12T06:02:14.460Z,90.08
2023-02-12T06:06:03.733Z,90.07
2023-02-12T06:09:52.782Z,90.05
2023-02-12T06:13:42.859Z,90.07
2023-02-12T06:17:34.197Z,90.02
2023-02-12T06:21:01.837Z,89.94
2023-02-12T06:40:24.406Z,89.83
2023-02-12T07:03:42.690Z,90.03
2023-02-12T07:07:19.419Z,90.00
2023-02-12T07:10:59.677Z,90.20
2023-02-12T07:14:47.497Z,90.19
2023-02-12T07:18:35.441Z,90.26
2023-02-12T07:22:24.136Z,90.29
2023-02-12T07:25:54.501Z,90.38
2023-02-12T07:29:50.196Z,90.45
2023-02-12T07:41:05.461Z,90.59
2023-02-12T07:44:34.362Z,90.56
2023-02-12T07:55:14.027Z,90.48
2023-02-12T07:59:02.666Z,90.40
2023-02-12T08:02:38.121Z,90.30
2023-02-12T08:22:06.407Z,89.46
2023-02-12T08:25:36.890Z,89.44
2023-02-12T08:29:14.580Z,89.33
2023-02-12T08:33:04.029Z,88.89
2023-02-12T08:36:52.985Z,88.67
2023-02-12T08:44:22.048Z,88.50
2023-02-12T08:48:12.949Z,88.42
2023-02-12T08:52:09.929Z,88.22
2023-02-12T09:18:08.514Z,87.14
2023-02-12T09:52:30.290Z,84.21
2023-02-12T09:56:19.267Z,83.71
2023-02-12T09:59:57.033Z,83.55
2023-02-12T10:03:28.101Z,83.51
2023-02-12T10:06:50.278Z,83.30
2023-02-12T10:10:40.889Z,82.89
2023-02-12T10:14:51.406Z,82.86
2023-02-12T10:30:37.771Z,82.24
2023-02-12T10:34:34.540Z,82.28
2023-02-12T10:38:07.442Z,82.64
2023-02-12T10:41:47.829Z,82.37
2023-02-12T10:45:32.987Z,82.23
2023-02-12T10:49:21.799Z,81.92
2023-02-12T11:01:32.468Z,79.74
2023-02-12T11:05:24.368Z,79.63
2023-02-12T11:09:11.806Z,79.74
2023-02-12T11:21:20.524Z,78.09
2023-02-12T11:25:12.420Z,78.31
2023-02-12T11:29:02.341Z,78.54
2023-02-12T11:37:25.116Z,77.47
2023-02-12T11:41:06.496Z,78.13
2023-02-12T11:44:42.963Z,77.81
2023-02-12T11:48:31.549Z,77.85
2023-02-12T12:00:34.533Z,77.10
2023-02-12T12:04:20.315Z,77.46
2023-02-12T12:08:06.963Z,77.33
2023-02-12T12:11:27.226Z,77.42
2023-02-12T12:15:11.280Z,77.19
2023-02-12T12:18:54.308Z,77.34
2023-02-12T12:22:44.624Z,76.80
2023-02-12T12:26:26.313Z,75.66
2023-02-12T12:30:15.198Z,76.67
2023-02-12T12:33:54.934Z,76.49
2023-02-12T12:37:43.485Z,74.60
2023-02-12T12:41:43.369Z,74.89
2023-02-12T12:57:52.918Z,72.85
2023-02-12T13:01:46.830Z,69.92
2023-02-12T13:05:48.663Z,72.79
2023-02-12T13:09:36.606Z,73.17
2023-02-12T13:13:10.603Z,74.01
2023-02-12T13:24:59.891Z,72.56
2023-02-12T13:28:48.872Z,70.51
2023-02-12T13:32:19.024Z,71.04
2023-02-12T13:36:08.643Z,71.50
2023-02-12T13:39:45.905Z,71.99
2023-02-12T13:43:50.694Z,71.26
2023-02-12T13:58:41.761Z,71.40
2023-02-12T14:02:36.653Z,71.03
2023-02-12T14:10:15.630Z,71.25
2023-02-12T14:14:14.209Z,68.50
2023-02-12T14:17:30.416Z,67.59
2023-02-12T14:29:54.444Z,68.36
2023-02-12T14:33:30.823Z,68.24
2023-02-12T14:36:54.081Z,68.38
2023-02-12T14:40:22.904Z,68.53
2023-02-12T14:44:00.116Z,68.43
2023-02-12T14:47:55.423Z,68.48
2023-02-12T14:51:00.863Z,68.84
2023-02-12T14:55:02.346Z,68.96
2023-02-12T14:59:21.016Z,69.04
2023-02-12T15:03:02.647Z,69.24
2023-02-12T15:06:07.744Z,69.46
2023-02-12T15:09:23.419Z,69.99
2023-02-12T15:13:12.770Z,70.56
2023-02-12T15:20:45.418Z,71.62
2023-02-12T16:12:29.814Z,75.73
2023-02-12T16:16:43.592Z,75.95
2023-02-12T16:20:35.495Z,76.18
2023-02-12T16:24:17.448Z,76.51
2023-02-12T16:39:40.590Z,77.19
2023-02-12T16:43:29.812Z,77.72
2023-02-12T16:59:05.550Z,78.61
2023-02-12T17:03:03.583Z,79.05
2023-02-12T17:06:52.696Z,79.45
2023-02-12T17:10:41.804Z,79.67
2023-02-12T17:14:31.242Z,79.89
2023-02-12T17:18:20.496Z,79.84
2023-02-12T17:22:09.485Z,79.70
2023-02-12T17:25:59.594Z,79.79
2023-02-12T17:29:28.913Z,80.01
2023-02-12T17:33:17.967Z,80.05
2023-02-12T17:37:08.989Z,80.18
2023-02-12T17:40:39.149Z,80.29
2023-02-12T17:44:28.264Z,80.39
2023-02-12T17:48:18.351Z,80.74
2023-02-12T17:52:07.548Z,81.08
2023-02-12T18:11:34.108Z,81.99
2023-02-12T18:15:23.280Z,81.91
2023-02-12T18:19:12.228Z,82.05
2023-02-12T18:23:02.499Z,82.19
2023-02-12T18:26:52.187Z,82.49
2023-02-12T18:30:41.797Z,82.96
2023-02-12T18:34:31.632Z,83.33
2023-02-12T18:38:21.831Z,83.57
2023-02-12T18:42:03.797Z,83.46
2023-02-12T18:45:53.676Z,83.49
2023-02-12T18:49:38.987Z,83.38
2023-02-12T18:57:26.503Z,83.66
2023-02-12T19:01:16.670Z,84.00
2023-02-12T19:05:09.957Z,84.22
2023-02-12T19:09:00.491Z,84.46
2023-02-12T19:12:50.441Z,84.83
2023-02-12T19:16:40.804Z,84.81
2023-02-12T19:20:30.666Z,84.88
2023-02-12T19:24:19.880Z,84.70
2023-02-12T19:28:10.327Z,84.40
2023-02-12T19:31:53.401Z,84.18
2023-02-12T19:51:20.320Z,84.77
2023-02-12T19:55:08.067Z,84.95
2023-02-12T19:58:55.956Z,85.09
2023-02-12T20:02:44.075Z,85.15
2023-02-12T20:06:41.461Z,85.08
2023-02-12T20:10:32.050Z,84.90
2023-02-12T20:26:10.467Z,84.10
2023-02-12T20:29:59.719Z,83.89
2023-02-12T20:33:49.416Z,84.04
2023-02-12T20:37:39.869Z,83.75
2023-02-12T20:41:30.144Z,83.84
2023-02-12T20:45:21.175Z,84.05
2023-02-12T20:49:12.600Z,84.33
2023-02-12T20:53:02.397Z,84.47
2023-02-12T21:08:33.834Z,85.14
2023-02-12T21:12:23.077Z,85.06
2023-02-12T21:16:02.274Z,85.35
2023-02-12T21:19:51.567Z,85.62
2023-02-12T21:23:40.864Z,85.67
2023-02-12T21:27:30.021Z,85.90
2023-02-12T21:31:19.261Z,85.48
2023-02-12T21:35:08.942Z,85.77
2023-02-12T21:38:52.315Z,86.53
2023-02-12T21:42:40.188Z,86.58
2023-02-12T21:50:17.007Z,86.17
2023-02-12T21:54:07.024Z,85.83
2023-02-12T22:13:38.480Z,85.84
2023-02-12T22:17:27.677Z,86.00
2023-02-12T22:21:16.862Z,86.24
2023-02-12T22:25:06.373Z,86.43
2023-02-12T22:28:55.398Z,86.81
2023-02-12T22:32:48.222Z,87.01
2023-02-12T22:36:42.119Z,87.04
2023-02-12T22:40:32.145Z,87.04
2023-02-12T22:44:23.084Z,86.92
2023-02-12T22:48:14.138Z,86.85
2023-02-12T22:52:19.417Z,86.78
2023-02-12T23:23:14.715Z,86.67
2023-02-12T23:27:02.601Z,86.71
2023-02-12T23:30:50.367Z,86.73
2023-02-12T23:34:38.512Z,86.72
2023-02-12T23:38:26.414Z,86.73
2023-02-12T23:42:14.315Z,86.83
2023-02-12T23:46:02.884Z,86.96
2023-02-12T23:49:50.800Z,86.90
2023-02-12T23:53:38.370Z,86.85
2023-02-12T23:57:27.092Z,86.89
